sensor_id;sensor_type;location;lat;lon;timestamp;P1;durP1;ratioP1;P2;durP2;ratioP2
15266;SDS011;7735;49.144;8.668;2022-07-29T00:00:11;4.07;;;3.00;;
15266;SDS011;7735;49.144;8.668;2022-07-29T00:02:38;4.07;;;3.40;;
15266;SDS011;7735;49.144;8.668;2022-07-29T00:05:05;3.87;;;3.40;;
15266;SDS011;7735;49.144;8.668;2022-07-29T00:07:33;4.47;;;3.27;;
15266;SDS011;7735;49.144;8.668;2022-07-29T00:10:00;5.00;;;3.43;;
15266;SDS011;7735;49.144;8.668;2022-07-29T00:12:26;3.97;;;3.30;;
15266;SDS011;7735;49.144;8.668;2022-07-29T00:14:55;4.35;;;3.50;;
15266;SDS011;7735;49.144;8.668;2022-07-29T00:17:23;4.27;;;3.27;;
15266;SDS011;7735;49.144;8.668;2022-07-29T00:19:50;4.50;;;3.33;;
15266;SDS011;7735;49.144;8.668;2022-07-29T00:22:17;4.50;;;3.23;;
15266;SDS011;7735;49.144;8.668;2022-07-29T00:24:43;4.90;;;3.57;;
15266;SDS011;7735;49.144;8.668;2022-07-29T00:27:10;4.00;;;3.40;;
15266;SDS011;7735;49.144;8.668;2022-07-29T00:29:36;6.27;;;3.40;;
15266;SDS011;7735;49.144;8.668;2022-07-29T00:32:05;8.43;;;3.30;;
15266;SDS011;7735;49.144;8.668;2022-07-29T00:34:32;4.90;;;3.37;;
15266;SDS011;7735;49.144;8.668;2022-07-29T00:37:16;4.40;;;3.47;;
15266;SDS011;7735;49.144;8.668;2022-07-29T00:39:42;3.93;;;3.37;;
15266;SDS011;7735;49.144;8.668;2022-07-29T00:42:09;4.43;;;3.60;;
15266;SDS011;7735;49.144;8.668;2022-07-29T00:44:36;5.27;;;3.73;;
15266;SDS011;7735;49.144;8.668;2022-07-29T00:47:05;3.43;;;3.00;;
15266;SDS011;7735;49.144;8.668;2022-07-29T00:49:32;4.63;;;3.57;;
15266;SDS011;7735;49.144;8.668;2022-07-29T00:52:00;6.03;;;3.20;;
15266;SDS011;7735;49.144;8.668;2022-07-29T00:54:27;4.30;;;3.53;;
15266;SDS011;7735;49.144;8.668;2022-07-29T00:56:54;4.40;;;3.50;;
15266;SDS011;7735;49.144;8.668;2022-07-29T00:59:22;6.27;;;3.77;;
15266;SDS011;7735;49.144;8.668;2022-07-29T01:01:49;3.90;;;3.40;;
15266;SDS011;7735;49.144;8.668;2022-07-29T01:04:16;3.47;;;3.17;;
15266;SDS011;7735;49.144;8.668;2022-07-29T01:06:43;5.40;;;3.70;;
15266;SDS011;7735;49.144;8.668;2022-07-29T01:09:10;5.90;;;3.63;;
15266;SDS011;7735;49.144;8.668;2022-07-29T01:11:37;5.47;;;3.40;;
15266;SDS011;7735;49.144;8.668;2022-07-29T01:14:05;4.83;;;3.70;;
15266;SDS011;7735;49.144;8.668;2022-07-29T01:16:36;3.77;;;3.40;;
15266;SDS011;7735;49.144;8.668;2022-07-29T01:19:17;3.97;;;3.57;;
15266;SDS011;7735;49.144;8.668;2022-07-29T01:21:59;5.40;;;3.40;;
15266;SDS011;7735;49.144;8.668;2022-07-29T01:24:52;3.93;;;3.43;;
15266;SDS011;7735;49.144;8.668;2022-07-29T01:27:45;5.60;;;4.30;;
15266;SDS011;7735;49.144;8.668;2022-07-29T01:30:28;4.00;;;3.43;;
15266;SDS011;7735;49.144;8.668;2022-07-29T01:32:58;5.07;;;3.37;;
15266;SDS011;7735;49.144;8.668;2022-07-29T01:35:30;3.90;;;3.40;;
15266;SDS011;7735;49.144;8.668;2022-07-29T01:38:05;6.27;;;3.90;;
15266;SDS011;7735;49.144;8.668;2022-07-29T01:40:36;8.53;;;3.70;;
15266;SDS011;7735;49.144;8.668;2022-07-29T01:43:10;3.63;;;3.30;;
15266;SDS011;7735;49.144;8.668;2022-07-29T01:45:41;5.17;;;3.60;;
15266;SDS011;7735;49.144;8.668;2022-07-29T01:48:11;5.17;;;3.90;;
15266;SDS011;7735;49.144;8.668;2022-07-29T01:50:45;6.57;;;3.50;;
15266;SDS011;7735;49.144;8.668;2022-07-29T01:53:15;10.47;;;4.03;;
15266;SDS011;7735;49.144;8.668;2022-07-29T01:55:47;4.13;;;3.57;;
15266;SDS011;7735;49.144;8.668;2022-07-29T01:58:16;6.83;;;4.00;;
15266;SDS011;7735;49.144;8.668;2022-07-29T02:00:46;4.20;;;3.50;;
15266;SDS011;7735;49.144;8.668;2022-07-29T02:03:16;5.03;;;3.67;;
15266;SDS011;7735;49.144;8.668;2022-07-29T02:05:45;4.20;;;3.60;;
15266;SDS011;7735;49.144;8.668;2022-07-29T02:08:14;7.30;;;3.70;;
15266;SDS011;7735;49.144;8.668;2022-07-29T02:10:42;7.30;;;3.80;;
15266;SDS011;7735;49.144;8.668;2022-07-29T02:13:11;6.70;;;3.40;;
15266;SDS011;7735;49.144;8.668;2022-07-29T02:15:39;5.17;;;3.70;;
15266;SDS011;7735;49.144;8.668;2022-07-29T02:18:10;4.90;;;3.87;;
15266;SDS011;7735;49.144;8.668;2022-07-29T02:20:42;4.63;;;3.80;;
15266;SDS011;7735;49.144;8.668;2022-07-29T02:23:12;4.90;;;3.83;;
15266;SDS011;7735;49.144;8.668;2022-07-29T02:25:43;4.33;;;3.57;;
15266;SDS011;7735;49.144;8.668;2022-07-29T02:28:10;4.53;;;3.60;;
15266;SDS011;7735;49.144;8.668;2022-07-29T02:30:40;5.03;;;4.07;;
15266;SDS011;7735;49.144;8.668;2022-07-29T02:33:12;5.07;;;3.60;;
15266;SDS011;7735;49.144;8.668;2022-07-29T02:35:40;4.47;;;3.70;;
15266;SDS011;7735;49.144;8.668;2022-07-29T02:38:10;4.70;;;3.90;;
15266;SDS011;7735;49.144;8.668;2022-07-29T02:40:58;4.47;;;3.70;;
15266;SDS011;7735;49.144;8.668;2022-07-29T02:43:26;7.60;;;3.80;;
15266;SDS011;7735;49.144;8.668;2022-07-29T02:45:54;6.23;;;4.30;;
15266;SDS011;7735;49.144;8.668;2022-07-29T02:48:25;5.27;;;3.70;;
15266;SDS011;7735;49.144;8.668;2022-07-29T02:51:01;4.57;;;4.00;;
15266;SDS011;7735;49.144;8.668;2022-07-29T02:53:32;4.03;;;3.63;;
15266;SDS011;7735;49.144;8.668;2022-07-29T02:56:01;4.57;;;3.73;;
15266;SDS011;7735;49.144;8.668;2022-07-29T02:58:33;8.90;;;5.40;;
15266;SDS011;7735;49.144;8.668;2022-07-29T03:01:04;5.67;;;4.10;;
15266;SDS011;7735;49.144;8.668;2022-07-29T03:03:38;6.37;;;4.20;;
15266;SDS011;7735;49.144;8.668;2022-07-29T03:06:07;7.53;;;4.10;;
15266;SDS011;7735;49.144;8.668;2022-07-29T03:08:35;4.57;;;4.03;;
15266;SDS011;7735;49.144;8.668;2022-07-29T03:11:02;8.03;;;4.30;;
15266;SDS011;7735;49.144;8.668;2022-07-29T03:13:30;4.67;;;3.90;;
15266;SDS011;7735;49.144;8.668;2022-07-29T03:15:57;6.33;;;3.83;;
15266;SDS011;7735;49.144;8.668;2022-07-29T03:18:24;6.43;;;4.03;;
15266;SDS011;7735;49.144;8.668;2022-07-29T03:20:53;5.37;;;4.10;;
15266;SDS011;7735;49.144;8.668;2022-07-29T03:23:20;5.43;;;4.43;;
15266;SDS011;7735;49.144;8.668;2022-07-29T03:25:48;5.50;;;3.80;;
15266;SDS011;7735;49.144;8.668;2022-07-29T03:28:15;4.17;;;3.77;;
15266;SDS011;7735;49.144;8.668;2022-07-29T03:30:42;6.47;;;3.93;;
15266;SDS011;7735;49.144;8.668;2022-07-29T03:33:09;7.80;;;4.43;;
15266;SDS011;7735;49.144;8.668;2022-07-29T03:35:39;6.97;;;4.03;;
15266;SDS011;7735;49.144;8.668;2022-07-29T03:38:07;5.83;;;4.50;;
15266;SDS011;7735;49.144;8.668;2022-07-29T03:40:37;4.70;;;4.20;;
15266;SDS011;7735;49.144;8.668;2022-07-29T03:43:12;6.13;;;4.17;;
15266;SDS011;7735;49.144;8.668;2022-07-29T03:45:42;5.43;;;4.50;;
15266;SDS011;7735;49.144;8.668;2022-07-29T03:48:12;6.30;;;4.23;;
15266;SDS011;7735;49.144;8.668;2022-07-29T03:50:42;4.40;;;4.00;;
15266;SDS011;7735;49.144;8.668;2022-07-29T03:53:10;6.90;;;4.07;;
15266;SDS011;7735;49.144;8.668;2022-07-29T03:55:56;4.33;;;3.93;;
15266;SDS011;7735;49.144;8.668;2022-07-29T03:58:26;4.37;;;3.97;;
15266;SDS011;7735;49.144;8.668;2022-07-29T04:00:54;5.67;;;4.60;;
15266;SDS011;7735;49.144;8.668;2022-07-29T04:03:21;6.33;;;4.47;;
15266;SDS011;7735;49.144;8.668;2022-07-29T04:05:57;6.13;;;4.13;;
15266;SDS011;7735;49.144;8.668;2022-07-29T04:08:26;4.97;;;3.93;;
15266;SDS011;7735;49.144;8.668;2022-07-29T04:10:52;5.30;;;4.30;;
15266;SDS011;7735;49.144;8.668;2022-07-29T04:13:19;4.77;;;4.10;;
15266;SDS011;7735;49.144;8.668;2022-07-29T04:15:46;4.67;;;4.20;;
15266;SDS011;7735;49.144;8.668;2022-07-29T04:18:13;5.90;;;4.90;;
15266;SDS011;7735;49.144;8.668;2022-07-29T04:20:39;6.03;;;4.37;;
15266;SDS011;7735;49.144;8.668;2022-07-29T04:23:06;6.83;;;4.80;;
15266;SDS011;7735;49.144;8.668;2022-07-29T04:25:36;6.07;;;4.67;;
15266;SDS011;7735;49.144;8.668;2022-07-29T04:28:03;5.07;;;4.50;;
15266;SDS011;7735;49.144;8.668;2022-07-29T04:30:30;5.03;;;4.30;;
15266;SDS011;7735;49.144;8.668;2022-07-29T04:32:58;5.07;;;4.57;;
15266;SDS011;7735;49.144;8.668;2022-07-29T04:35:25;4.63;;;4.17;;
15266;SDS011;7735;49.144;8.668;2022-07-29T04:37:52;7.23;;;4.07;;
15266;SDS011;7735;49.144;8.668;2022-07-29T04:40:19;7.23;;;4.83;;
15266;SDS011;7735;49.144;8.668;2022-07-29T04:42:47;6.33;;;4.47;;
15266;SDS011;7735;49.144;8.668;2022-07-29T04:45:14;5.90;;;4.90;;
15266;SDS011;7735;49.144;8.668;2022-07-29T04:47:40;6.87;;;4.33;;
15266;SDS011;7735;49.144;8.668;2022-07-29T04:50:07;5.63;;;4.17;;
15266;SDS011;7735;49.144;8.668;2022-07-29T04:52:34;7.17;;;4.43;;
15266;SDS011;7735;49.144;8.668;2022-07-29T04:55:01;4.80;;;4.20;;
15266;SDS011;7735;49.144;8.668;2022-07-29T04:57:28;5.03;;;4.43;;
15266;SDS011;7735;49.144;8.668;2022-07-29T04:59:57;5.53;;;3.63;;
15266;SDS011;7735;49.144;8.668;2022-07-29T05:02:23;6.40;;;4.57;;
15266;SDS011;7735;49.144;8.668;2022-07-29T05:04:50;6.00;;;4.13;;
15266;SDS011;7735;49.144;8.668;2022-07-29T05:07:16;7.20;;;4.17;;
15266;SDS011;7735;49.144;8.668;2022-07-29T05:09:43;6.63;;;4.97;;
15266;SDS011;7735;49.144;8.668;2022-07-29T05:12:10;7.63;;;4.63;;
15266;SDS011;7735;49.144;8.668;2022-07-29T05:14:36;8.87;;;4.10;;
15266;SDS011;7735;49.144;8.668;2022-07-29T05:17:04;5.10;;;4.17;;
15266;SDS011;7735;49.144;8.668;2022-07-29T05:19:31;4.23;;;3.77;;
15266;SDS011;7735;49.144;8.668;2022-07-29T05:21:58;6.43;;;4.30;;
15266;SDS011;7735;49.144;8.668;2022-07-29T05:24:25;6.37;;;4.43;;
15266;SDS011;7735;49.144;8.668;2022-07-29T05:26:54;6.73;;;4.37;;
15266;SDS011;7735;49.144;8.668;2022-07-29T05:29:21;6.10;;;4.20;;
15266;SDS011;7735;49.144;8.668;2022-07-29T05:31:48;6.30;;;4.80;;
15266;SDS011;7735;49.144;8.668;2022-07-29T05:34:17;7.90;;;5.73;;
15266;SDS011;7735;49.144;8.668;2022-07-29T05:36:44;6.80;;;5.43;;
15266;SDS011;7735;49.144;8.668;2022-07-29T05:39:11;5.43;;;4.50;;
15266;SDS011;7735;49.144;8.668;2022-07-29T05:41:38;6.40;;;5.53;;
15266;SDS011;7735;49.144;8.668;2022-07-29T05:44:05;12.53;;;7.57;;
15266;SDS011;7735;49.144;8.668;2022-07-29T05:46:31;9.93;;;5.47;;
15266;SDS011;7735;49.144;8.668;2022-07-29T05:48:58;8.07;;;5.97;;
15266;SDS011;7735;49.144;8.668;2022-07-29T05:51:26;10.30;;;5.73;;
15266;SDS011;7735;49.144;8.668;2022-07-29T05:53:52;7.17;;;5.90;;
15266;SDS011;7735;49.144;8.668;2022-07-29T05:56:19;9.43;;;5.07;;
15266;SDS011;7735;49.144;8.668;2022-07-29T05:58:46;9.43;;;6.03;;
15266;SDS011;7735;49.144;8.668;2022-07-29T06:01:12;5.97;;;4.73;;
15266;SDS011;7735;49.144;8.668;2022-07-29T06:03:39;6.63;;;4.30;;
15266;SDS011;7735;49.144;8.668;2022-07-29T06:06:06;4.87;;;4.00;;
15266;SDS011;7735;49.144;8.668;2022-07-29T06:08:35;4.97;;;4.10;;
15266;SDS011;7735;49.144;8.668;2022-07-29T06:11:03;4.67;;;3.80;;
15266;SDS011;7735;49.144;8.668;2022-07-29T06:13:30;5.37;;;4.30;;
15266;SDS011;7735;49.144;8.668;2022-07-29T06:15:58;7.40;;;4.20;;
15266;SDS011;7735;49.144;8.668;2022-07-29T06:18:25;8.10;;;5.40;;
15266;SDS011;7735;49.144;8.668;2022-07-29T06:20:52;7.43;;;4.80;;
15266;SDS011;7735;49.144;8.668;2022-07-29T06:23:19;9.73;;;6.90;;
15266;SDS011;7735;49.144;8.668;2022-07-29T06:25:48;8.10;;;4.40;;
15266;SDS011;7735;49.144;8.668;2022-07-29T06:28:14;4.30;;;3.60;;
15266;SDS011;7735;49.144;8.668;2022-07-29T06:30:41;6.23;;;4.60;;
15266;SDS011;7735;49.144;8.668;2022-07-29T06:33:07;4.50;;;3.97;;
15266;SDS011;7735;49.144;8.668;2022-07-29T06:35:34;5.93;;;4.53;;
15266;SDS011;7735;49.144;8.668;2022-07-29T06:38:01;5.43;;;4.23;;
15266;SDS011;7735;49.144;8.668;2022-07-29T06:40:28;5.53;;;4.93;;
15266;SDS011;7735;49.144;8.668;2022-07-29T06:43:14;5.70;;;4.40;;
15266;SDS011;7735;49.144;8.668;2022-07-29T06:45:40;7.83;;;4.53;;
15266;SDS011;7735;49.144;8.668;2022-07-29T06:48:07;8.73;;;4.90;;
15266;SDS011;7735;49.144;8.668;2022-07-29T06:50:34;5.83;;;4.70;;
15266;SDS011;7735;49.144;8.668;2022-07-29T06:53:01;6.37;;;4.30;;
15266;SDS011;7735;49.144;8.668;2022-07-29T06:55:28;5.83;;;4.03;;
15266;SDS011;7735;49.144;8.668;2022-07-29T06:57:54;7.20;;;4.27;;
15266;SDS011;7735;49.144;8.668;2022-07-29T07:00:22;4.20;;;3.80;;
15266;SDS011;7735;49.144;8.668;2022-07-29T07:02:49;4.53;;;4.00;;
15266;SDS011;7735;49.144;8.668;2022-07-29T07:05:15;4.70;;;3.97;;
15266;SDS011;7735;49.144;8.668;2022-07-29T07:07:42;6.10;;;4.37;;
15266;SDS011;7735;49.144;8.668;2022-07-29T07:10:08;5.57;;;4.40;;
15266;SDS011;7735;49.144;8.668;2022-07-29T07:12:35;6.53;;;4.90;;
15266;SDS011;7735;49.144;8.668;2022-07-29T07:15:02;5.37;;;4.07;;
15266;SDS011;7735;49.144;8.668;2022-07-29T07:17:30;6.30;;;4.73;;
15266;SDS011;7735;49.144;8.668;2022-07-29T07:19:57;5.43;;;4.30;;
15266;SDS011;7735;49.144;8.668;2022-07-29T07:22:23;5.77;;;4.33;;
15266;SDS011;7735;49.144;8.668;2022-07-29T07:24:53;5.53;;;3.90;;
15266;SDS011;7735;49.144;8.668;2022-07-29T07:27:20;5.87;;;4.03;;
15266;SDS011;7735;49.144;8.668;2022-07-29T07:29:46;6.27;;;4.13;;
15266;SDS011;7735;49.144;8.668;2022-07-29T07:32:13;6.30;;;4.67;;
15266;SDS011;7735;49.144;8.668;2022-07-29T07:34:42;6.73;;;4.50;;
15266;SDS011;7735;49.144;8.668;2022-07-29T07:37:09;4.30;;;3.90;;
15266;SDS011;7735;49.144;8.668;2022-07-29T07:39:35;5.93;;;4.27;;
15266;SDS011;7735;49.144;8.668;2022-07-29T07:42:02;5.07;;;4.40;;
15266;SDS011;7735;49.144;8.668;2022-07-29T07:44:30;9.03;;;4.27;;
15266;SDS011;7735;49.144;8.668;2022-07-29T07:46:56;5.73;;;4.53;;
15266;SDS011;7735;49.144;8.668;2022-07-29T07:49:23;6.60;;;4.27;;
15266;SDS011;7735;49.144;8.668;2022-07-29T07:51:51;5.83;;;3.63;;
15266;SDS011;7735;49.144;8.668;2022-07-29T07:54:18;5.63;;;4.10;;
15266;SDS011;7735;49.144;8.668;2022-07-29T07:56:45;6.70;;;4.40;;
15266;SDS011;7735;49.144;8.668;2022-07-29T07:59:13;5.60;;;3.40;;
15266;SDS011;7735;49.144;8.668;2022-07-29T08:01:40;6.40;;;4.47;;
15266;SDS011;7735;49.144;8.668;2022-07-29T08:04:07;8.00;;;3.90;;
15266;SDS011;7735;49.144;8.668;2022-07-29T08:06:33;7.23;;;4.60;;
15266;SDS011;7735;49.144;8.668;2022-07-29T08:09:02;6.07;;;4.20;;
15266;SDS011;7735;49.144;8.668;2022-07-29T08:11:29;6.47;;;4.23;;
15266;SDS011;7735;49.144;8.668;2022-07-29T08:13:55;6.03;;;4.47;;
15266;SDS011;7735;49.144;8.668;2022-07-29T08:16:22;5.47;;;4.70;;
15266;SDS011;7735;49.144;8.668;2022-07-29T08:18:50;4.60;;;4.10;;
15266;SDS011;7735;49.144;8.668;2022-07-29T08:21:22;9.73;;;4.20;;
15266;SDS011;7735;49.144;8.668;2022-07-29T08:23:57;6.77;;;4.60;;
15266;SDS011;7735;49.144;8.668;2022-07-29T08:26:44;6.97;;;4.80;;
15266;SDS011;7735;49.144;8.668;2022-07-29T08:29:20;6.70;;;4.17;;
15266;SDS011;7735;49.144;8.668;2022-07-29T08:31:47;7.53;;;4.90;;
15266;SDS011;7735;49.144;8.668;2022-07-29T08:34:13;7.30;;;4.50;;
15266;SDS011;7735;49.144;8.668;2022-07-29T08:36:40;9.07;;;5.47;;
15266;SDS011;7735;49.144;8.668;2022-07-29T08:39:07;6.10;;;4.03;;
15266;SDS011;7735;49.144;8.668;2022-07-29T08:41:33;7.57;;;4.50;;
15266;SDS011;7735;49.144;8.668;2022-07-29T08:44:03;5.23;;;4.73;;
15266;SDS011;7735;49.144;8.668;2022-07-29T08:46:31;5.63;;;3.83;;
15266;SDS011;7735;49.144;8.668;2022-07-29T08:48:57;5.27;;;4.03;;
15266;SDS011;7735;49.144;8.668;2022-07-29T08:51:24;6.37;;;4.37;;
15266;SDS011;7735;49.144;8.668;2022-07-29T08:53:52;6.47;;;4.47;;
15266;SDS011;7735;49.144;8.668;2022-07-29T08:56:20;6.57;;;4.33;;
15266;SDS011;7735;49.144;8.668;2022-07-29T08:58:48;4.70;;;4.00;;
15266;SDS011;7735;49.144;8.668;2022-07-29T09:01:17;8.20;;;4.30;;
15266;SDS011;7735;49.144;8.668;2022-07-29T09:03:46;4.30;;;3.87;;
15266;SDS011;7735;49.144;8.668;2022-07-29T09:06:14;5.20;;;3.67;;
15266;SDS011;7735;49.144;8.668;2022-07-29T09:08:43;5.47;;;3.80;;
15266;SDS011;7735;49.144;8.668;2022-07-29T09:11:10;6.40;;;3.83;;
15266;SDS011;7735;49.144;8.668;2022-07-29T09:13:37;6.70;;;3.50;;
15266;SDS011;7735;49.144;8.668;2022-07-29T09:16:04;5.03;;;3.53;;
15266;SDS011;7735;49.144;8.668;2022-07-29T09:18:45;4.17;;;3.50;;
15266;SDS011;7735;49.144;8.668;2022-07-29T09:21:13;4.83;;;3.90;;
15266;SDS011;7735;49.144;8.668;2022-07-29T09:24:03;7.07;;;3.70;;
15266;SDS011;7735;49.144;8.668;2022-07-29T09:26:32;4.70;;;3.40;;
15266;SDS011;7735;49.144;8.668;2022-07-29T09:29:07;5.43;;;3.70;;
15266;SDS011;7735;49.144;8.668;2022-07-29T09:31:36;5.50;;;3.70;;
15266;SDS011;7735;49.144;8.668;2022-07-29T09:34:05;3.40;;;3.10;;
15266;SDS011;7735;49.144;8.668;2022-07-29T09:36:38;5.87;;;3.60;;
15266;SDS011;7735;49.144;8.668;2022-07-29T09:39:06;5.70;;;3.57;;
15266;SDS011;7735;49.144;8.668;2022-07-29T09:41:43;4.35;;;3.80;;
15266;SDS011;7735;49.144;8.668;2022-07-29T09:44:10;4.20;;;3.60;;
15266;SDS011;7735;49.144;8.668;2022-07-29T09:46:37;4.30;;;3.90;;
15266;SDS011;7735;49.144;8.668;2022-07-29T09:49:09;3.60;;;3.30;;
15266;SDS011;7735;49.144;8.668;2022-07-29T09:51:37;4.72;;;3.30;;
15266;SDS011;7735;49.144;8.668;2022-07-29T09:56:50;6.07;;;3.53;;
15266;SDS011;7735;49.144;8.668;2022-07-29T09:59:18;4.47;;;3.85;;
15266;SDS011;7735;49.144;8.668;2022-07-29T10:01:45;5.78;;;3.90;;
15266;SDS011;7735;49.144;8.668;2022-07-29T10:04:14;5.43;;;3.67;;
15266;SDS011;7735;49.144;8.668;2022-07-29T10:06:54;10.45;;;3.70;;
15266;SDS011;7735;49.144;8.668;2022-07-29T10:09:23;5.47;;;3.35;;
15266;SDS011;7735;49.144;8.668;2022-07-29T10:12:02;4.43;;;3.78;;
15266;SDS011;7735;49.144;8.668;2022-07-29T10:14:30;5.23;;;3.37;;
15266;SDS011;7735;49.144;8.668;2022-07-29T10:16:57;4.60;;;2.90;;
15266;SDS011;7735;49.144;8.668;2022-07-29T10:19:26;4.40;;;3.17;;
15266;SDS011;7735;49.144;8.668;2022-07-29T10:21:54;4.88;;;3.47;;
15266;SDS011;7735;49.144;8.668;2022-07-29T10:24:22;3.63;;;2.95;;
15266;SDS011;7735;49.144;8.668;2022-07-29T10:26:50;5.20;;;3.30;;
15266;SDS011;7735;49.144;8.668;2022-07-29T10:29:18;2.95;;;2.08;;
15266;SDS011;7735;49.144;8.668;2022-07-29T10:31:47;5.13;;;3.72;;
15266;SDS011;7735;49.144;8.668;2022-07-29T10:34:23;5.22;;;4.15;;
15266;SDS011;7735;49.144;8.668;2022-07-29T10:37:02;4.68;;;3.40;;
15266;SDS011;7735;49.144;8.668;2022-07-29T10:39:38;6.50;;;3.03;;
15266;SDS011;7735;49.144;8.668;2022-07-29T10:42:17;5.05;;;3.35;;
15266;SDS011;7735;49.144;8.668;2022-07-29T10:44:46;5.32;;;3.40;;
15266;SDS011;7735;49.144;8.668;2022-07-29T10:47:19;3.70;;;3.20;;
15266;SDS011;7735;49.144;8.668;2022-07-29T10:49:58;8.00;;;3.63;;
15266;SDS011;7735;49.144;8.668;2022-07-29T10:52:36;4.05;;;3.35;;
15266;SDS011;7735;49.144;8.668;2022-07-29T10:55:30;3.88;;;3.22;;
15266;SDS011;7735;49.144;8.668;2022-07-29T10:58:13;5.07;;;3.42;;
15266;SDS011;7735;49.144;8.668;2022-07-29T11:00:41;8.85;;;3.90;;
15266;SDS011;7735;49.144;8.668;2022-07-29T11:03:08;4.63;;;3.30;;
15266;SDS011;7735;49.144;8.668;2022-07-29T11:05:52;7.57;;;3.28;;
15266;SDS011;7735;49.144;8.668;2022-07-29T11:08:21;4.75;;;3.05;;
15266;SDS011;7735;49.144;8.668;2022-07-29T11:14:06;3.75;;;3.10;;
15266;SDS011;7735;49.144;8.668;2022-07-29T11:19:27;5.78;;;3.65;;
15266;SDS011;7735;49.144;8.668;2022-07-29T11:21:54;4.45;;;2.70;;
15266;SDS011;7735;49.144;8.668;2022-07-29T11:24:22;4.47;;;3.22;;
15266;SDS011;7735;49.144;8.668;2022-07-29T11:29:48;5.50;;;3.30;;
15266;SDS011;7735;49.144;8.668;2022-07-29T11:32:16;5.13;;;3.00;;
15266;SDS011;7735;49.144;8.668;2022-07-29T11:34:45;4.25;;;3.45;;
15266;SDS011;7735;49.144;8.668;2022-07-29T11:37:21;7.43;;;3.70;;
15266;SDS011;7735;49.144;8.668;2022-07-29T11:42:43;4.18;;;3.13;;
15266;SDS011;7735;49.144;8.668;2022-07-29T11:45:14;5.07;;;3.30;;
15266;SDS011;7735;49.144;8.668;2022-07-29T11:47:59;5.00;;;3.33;;
15266;SDS011;7735;49.144;8.668;2022-07-29T11:50:30;4.75;;;3.42;;
15266;SDS011;7735;49.144;8.668;2022-07-29T11:53:11;4.32;;;3.50;;
15266;SDS011;7735;49.144;8.668;2022-07-29T11:55:39;8.38;;;3.30;;
15266;SDS011;7735;49.144;8.668;2022-07-29T11:58:09;6.03;;;4.40;;
15266;SDS011;7735;49.144;8.668;2022-07-29T12:00:37;3.70;;;3.30;;
15266;SDS011;7735;49.144;8.668;2022-07-29T12:03:09;4.80;;;3.45;;
15266;SDS011;7735;49.144;8.668;2022-07-29T12:05:38;6.13;;;3.40;;
15266;SDS011;7735;49.144;8.668;2022-07-29T12:08:07;3.80;;;3.28;;
15266;SDS011;7735;49.144;8.668;2022-07-29T12:10:36;3.78;;;3.30;;
15266;SDS011;7735;49.144;8.668;2022-07-29T12:13:03;4.32;;;2.97;;
15266;SDS011;7735;49.144;8.668;2022-07-29T12:15:30;3.47;;;2.92;;
15266;SDS011;7735;49.144;8.668;2022-07-29T12:17:57;6.47;;;3.67;;
15266;SDS011;7735;49.144;8.668;2022-07-29T12:20:24;4.88;;;3.47;;
15266;SDS011;7735;49.144;8.668;2022-07-29T12:22:52;3.90;;;3.28;;
15266;SDS011;7735;49.144;8.668;2022-07-29T12:25:20;6.97;;;3.45;;
15266;SDS011;7735;49.144;8.668;2022-07-29T12:28:00;5.38;;;3.83;;
15266;SDS011;7735;49.144;8.668;2022-07-29T12:30:36;5.00;;;3.30;;
15266;SDS011;7735;49.144;8.668;2022-07-29T12:33:14;5.85;;;3.45;;
15266;SDS011;7735;49.144;8.668;2022-07-29T12:35:47;5.47;;;3.65;;
15266;SDS011;7735;49.144;8.668;2022-07-29T12:38:15;4.30;;;3.53;;
15266;SDS011;7735;49.144;8.668;2022-07-29T12:40:43;7.07;;;3.50;;
15266;SDS011;7735;49.144;8.668;2022-07-29T12:43:13;3.83;;;3.40;;
15266;SDS011;7735;49.144;8.668;2022-07-29T12:45:41;4.25;;;3.38;;
15266;SDS011;7735;49.144;8.668;2022-07-29T12:48:09;6.45;;;3.70;;
15266;SDS011;7735;49.144;8.668;2022-07-29T12:50:36;3.83;;;3.10;;
15266;SDS011;7735;49.144;8.668;2022-07-29T12:53:17;4.55;;;3.22;;
15266;SDS011;7735;49.144;8.668;2022-07-29T12:55:47;3.65;;;3.13;;
15266;SDS011;7735;49.144;8.668;2022-07-29T13:01:07;7.32;;;3.72;;
15266;SDS011;7735;49.144;8.668;2022-07-29T13:03:43;5.00;;;3.35;;
15266;SDS011;7735;49.144;8.668;2022-07-29T13:06:29;4.68;;;3.08;;
15266;SDS011;7735;49.144;8.668;2022-07-29T13:08:58;4.00;;;2.95;;
15266;SDS011;7735;49.144;8.668;2022-07-29T13:11:45;4.38;;;3.30;;
15266;SDS011;7735;49.144;8.668;2022-07-29T13:14:29;5.50;;;3.60;;
15266;SDS011;7735;49.144;8.668;2022-07-29T13:17:00;4.18;;;2.97;;
15266;SDS011;7735;49.144;8.668;2022-07-29T13:19:38;4.47;;;3.20;;
15266;SDS011;7735;49.144;8.668;2022-07-29T13:22:06;3.45;;;3.15;;
15266;SDS011;7735;49.144;8.668;2022-07-29T13:24:46;4.53;;;3.53;;
15266;SDS011;7735;49.144;8.668;2022-07-29T13:27:22;5.32;;;3.00;;
15266;SDS011;7735;49.144;8.668;2022-07-29T13:29:51;4.03;;;3.38;;
15266;SDS011;7735;49.144;8.668;2022-07-29T13:32:19;3.85;;;3.40;;
15266;SDS011;7735;49.144;8.668;2022-07-29T13:34:46;4.70;;;3.40;;
15266;SDS011;7735;49.144;8.668;2022-07-29T13:37:19;4.18;;;3.33;;
15266;SDS011;7735;49.144;8.668;2022-07-29T13:39:46;4.68;;;3.10;;
15266;SDS011;7735;49.144;8.668;2022-07-29T13:42:13;3.75;;;3.10;;
15266;SDS011;7735;49.144;8.668;2022-07-29T13:44:40;16.05;;;3.40;;
15266;SDS011;7735;49.144;8.668;2022-07-29T13:47:08;3.78;;;3.38;;
15266;SDS011;7735;49.144;8.668;2022-07-29T13:49:35;4.25;;;3.00;;
15266;SDS011;7735;49.144;8.668;2022-07-29T13:52:13;5.60;;;2.70;;
15266;SDS011;7735;49.144;8.668;2022-07-29T13:54:40;6.35;;;2.88;;
15266;SDS011;7735;49.144;8.668;2022-07-29T13:57:07;4.15;;;2.97;;
15266;SDS011;7735;49.144;8.668;2022-07-29T13:59:40;4.28;;;2.85;;
15266;SDS011;7735;49.144;8.668;2022-07-29T14:02:11;4.82;;;2.80;;
15266;SDS011;7735;49.144;8.668;2022-07-29T14:04:38;7.72;;;3.63;;
15266;SDS011;7735;49.144;8.668;2022-07-29T14:07:05;3.30;;;2.85;;
15266;SDS011;7735;49.144;8.668;2022-07-29T14:12:23;5.20;;;2.60;;
15266;SDS011;7735;49.144;8.668;2022-07-29T14:14:50;5.00;;;2.30;;
15266;SDS011;7735;49.144;8.668;2022-07-29T14:17:18;2.88;;;2.40;;
15266;SDS011;7735;49.144;8.668;2022-07-29T14:20:03;4.05;;;2.25;;
15266;SDS011;7735;49.144;8.668;2022-07-29T14:22:30;4.00;;;2.28;;
15266;SDS011;7735;49.144;8.668;2022-07-29T14:24:58;3.72;;;2.33;;
15266;SDS011;7735;49.144;8.668;2022-07-29T14:27:31;2.33;;;2.13;;
15266;SDS011;7735;49.144;8.668;2022-07-29T14:29:57;5.85;;;2.25;;
15266;SDS011;7735;49.144;8.668;2022-07-29T14:32:25;2.88;;;2.13;;
15266;SDS011;7735;49.144;8.668;2022-07-29T14:34:53;3.35;;;2.47;;
15266;SDS011;7735;49.144;8.668;2022-07-29T14:37:20;3.95;;;2.17;;
15266;SDS011;7735;49.144;8.668;2022-07-29T14:39:48;1.88;;;1.77;;
15266;SDS011;7735;49.144;8.668;2022-07-29T14:42:15;2.70;;;2.45;;
15266;SDS011;7735;49.144;8.668;2022-07-29T14:44:41;4.18;;;2.20;;
15266;SDS011;7735;49.144;8.668;2022-07-29T14:47:08;2.25;;;2.05;;
15266;SDS011;7735;49.144;8.668;2022-07-29T14:49:36;3.42;;;2.10;;
15266;SDS011;7735;49.144;8.668;2022-07-29T14:52:03;6.13;;;2.15;;
15266;SDS011;7735;49.144;8.668;2022-07-29T14:54:30;3.78;;;2.50;;
15266;SDS011;7735;49.144;8.668;2022-07-29T14:56:57;3.10;;;1.90;;
15266;SDS011;7735;49.144;8.668;2022-07-29T14:59:23;4.25;;;1.70;;
15266;SDS011;7735;49.144;8.668;2022-07-29T15:01:55;2.70;;;1.95;;
15266;SDS011;7735;49.144;8.668;2022-07-29T15:04:21;2.20;;;1.70;;
15266;SDS011;7735;49.144;8.668;2022-07-29T15:06:54;2.30;;;1.80;;
15266;SDS011;7735;49.144;8.668;2022-07-29T15:09:20;2.63;;;1.77;;
15266;SDS011;7735;49.144;8.668;2022-07-29T15:11:47;3.05;;;1.90;;
15266;SDS011;7735;49.144;8.668;2022-07-29T15:14:17;2.22;;;1.48;;
15266;SDS011;7735;49.144;8.668;2022-07-29T15:16:43;3.80;;;1.98;;
15266;SDS011;7735;49.144;8.668;2022-07-29T15:19:10;2.85;;;2.00;;
15266;SDS011;7735;49.144;8.668;2022-07-29T15:21:37;4.38;;;1.67;;
15266;SDS011;7735;49.144;8.668;2022-07-29T15:24:05;2.45;;;1.90;;
15266;SDS011;7735;49.144;8.668;2022-07-29T15:26:33;2.03;;;1.60;;
15266;SDS011;7735;49.144;8.668;2022-07-29T15:28:59;2.10;;;1.90;;
15266;SDS011;7735;49.144;8.668;2022-07-29T15:31:26;2.28;;;1.67;;
15266;SDS011;7735;49.144;8.668;2022-07-29T15:33:53;3.38;;;1.75;;